createdAt,value
2023-02-13T00:02:22.000Z,64.10
2023-02-13T00:12:22.000Z,76.10
2023-02-13T00:22:21.000Z,69.70
2023-02-13T00:32:21.000Z,78.20
2023-02-13T00:42:21.000Z,86.60
2023-02-13T00:52:21.000Z,74.90
2023-02-13T01:02:21.000Z,67.10
2023-02-13T01:12:21.000Z,68.50
2023-02-13T01:22:21.000Z,72.60
2023-02-13T01:32:21.000Z,67.20
2023-02-13T01:42:21.000Z,62.30
2023-02-13T01:52:21.000Z,66.80
2023-02-13T02:02:21.000Z,64.00
2023-02-13T02:12:20.000Z,61.70
2023-02-13T02:22:20.000Z,72.90
2023-02-13T02:32:20.000Z,71.80
2023-02-13T02:42:20.000Z,65.40
2023-02-13T02:52:20.000Z,60.90
2023-02-13T03:02:20.000Z,59.20
2023-02-13T03:12:20.000Z,62.20
2023-02-13T03:22:20.000Z,62.60
2023-02-13T03:32:20.000Z,60.40
2023-02-13T03:42:20.000Z,40.70
2023-02-13T03:52:19.000Z,41.40
2023-02-13T04:02:19.000Z,41.90
2023-02-13T04:12:19.000Z,43.30
2023-02-13T04:22:19.000Z,46.70
2023-02-13T04:32:19.000Z,43.90
2023-02-13T04:42:19.000Z,58.80
2023-02-13T04:52:19.000Z,46.80
2023-02-13T05:02:19.000Z,45.00
2023-02-13T05:12:19.000Z,37.50
2023-02-13T05:22:19.000Z,31.40
2023-02-13T05:32:19.000Z,32.30
2023-02-13T05:42:18.000Z,33.20
2023-02-13T05:52:18.000Z,32.50
2023-02-13T06:02:18.000Z,42.80
2023-02-13T06:12:18.000Z,39.60
2023-02-13T06:22:18.000Z,40.40
2023-02-13T06:32:18.000Z,45.00
2023-02-13T06:42:18.000Z,44.00
2023-02-13T06:52:18.000Z,44.60
2023-02-13T07:02:18.000Z,47.30
2023-02-13T07:12:18.000Z,44.60
2023-02-13T07:22:17.000Z,41.90
2023-02-13T07:32:17.000Z,37.20
2023-02-13T07:42:17.000Z,35.90
2023-02-13T07:52:17.000Z,28.70
2023-02-13T08:02:17.000Z,20.30
2023-02-13T08:12:17.000Z,18.60
2023-02-13T08:22:17.000Z,22.50
2023-02-13T08:32:17.000Z,19.90
2023-02-13T08:42:17.000Z,16.70
2023-02-13T08:52:17.000Z,13.30
2023-02-13T09:02:17.000Z,16.90
2023-02-13T09:12:16.000Z,13.10
2023-02-13T09:22:16.000Z,13.30
2023-02-13T09:32:16.000Z,11.10
2023-02-13T09:42:16.000Z,12.00
2023-02-13T09:52:16.000Z,12.90
2023-02-13T10:02:16.000Z,12.90
2023-02-13T10:12:16.000Z,8.50
2023-02-13T10:22:16.000Z,8.00
2023-02-13T10:32:16.000Z,5.50
2023-02-13T10:42:16.000Z,5.70
2023-02-13T10:52:15.000Z,4.00
2023-02-13T11:02:15.000Z,3.00
2023-02-13T11:12:15.000Z,2.20
2023-02-13T11:22:15.000Z,3.00
2023-02-13T11:32:15.000Z,4.20
2023-02-13T11:42:15.000Z,3.30
2023-02-13T11:52:15.000Z,3.10
2023-02-13T12:02:15.000Z,3.20
2023-02-13T12:12:15.000Z,3.00
2023-02-13T12:22:15.000Z,4.50
2023-02-13T12:32:15.000Z,7.60
2023-02-13T12:42:14.000Z,5.50
2023-02-13T12:52:14.000Z,5.80
2023-02-13T13:02:14.000Z,4.60
2023-02-13T13:12:14.000Z,4.60
2023-02-13T13:22:14.000Z,5.60
2023-02-13T13:32:14.000Z,6.30
2023-02-13T13:42:14.000Z,5.20
2023-02-13T13:52:14.000Z,6.30
2023-02-13T14:02:14.000Z,6.40
2023-02-13T14:12:14.000Z,8.40
2023-02-13T14:22:13.000Z,11.50
2023-02-13T14:32:13.000Z,12.20
2023-02-13T14:42:13.000Z,11.50
2023-02-13T14:52:13.000Z,13.30
2023-02-13T15:02:13.000Z,15.90
2023-02-13T15:12:13.000Z,10.20
2023-02-13T15:22:13.000Z,11.40
2023-02-13T15:32:13.000Z,11.60
2023-02-13T15:42:13.000Z,9.40
2023-02-13T15:52:13.000Z,11.10
2023-02-13T16:02:13.000Z,12.70
2023-02-13T16:12:12.000Z,11.70
2023-02-13T16:22:12.000Z,10.40
2023-02-13T16:32:12.000Z,8.90
2023-02-13T16:42:12.000Z,9.20
2023-02-13T16:52:12.000Z,9.80
2023-02-13T17:02:12.000Z,8.70
2023-02-13T17:12:12.000Z,12.20
2023-02-13T17:22:12.000Z,9.60
2023-02-13T17:32:12.000Z,10.90
2023-02-13T17:42:12.000Z,11.10
2023-02-13T17:52:11.000Z,12.10
2023-02-13T18:02:11.000Z,9.60
2023-02-13T18:12:11.000Z,11.60
2023-02-13T18:22:11.000Z,11.40
2023-02-13T18:32:11.000Z,11.30
2023-02-13T18:42:11.000Z,12.50
2023-02-13T18:52:11.000Z,18.30
2023-02-13T19:02:11.000Z,16.60
2023-02-13T19:12:11.000Z,21.30
2023-02-13T19:22:11.000Z,20.90
2023-02-13T19:32:11.000Z,24.70
2023-02-13T19:42:10.000Z,28.00
2023-02-13T19:52:10.000Z,24.60
2023-02-13T20:02:10.000Z,28.70
2023-02-13T20:12:10.000Z,30.90
2023-02-13T20:22:10.000Z,25.70
2023-02-13T20:32:10.000Z,32.50
2023-02-13T20:42:10.000Z,40.80
2023-02-13T20:52:10.000Z,32.60
2023-02-13T21:02:10.000Z,29.10
2023-02-13T21:12:10.000Z,29.30
2023-02-13T21:22:10.000Z,29.30
2023-02-13T21:32:09.000Z,54.80
2023-02-13T21:42:09.000Z,39.50
2023-02-13T21:52:09.000Z,38.70
2023-02-13T22:02:09.000Z,38.20
2023-02-13T22:12:09.000Z,31.90
2023-02-13T22:22:09.000Z,42.10
2023-02-13T22:32:09.000Z,50.90
2023-02-13T22:42:09.000Z,53.70
2023-02-13T22:52:09.000Z,59.30
2023-02-13T23:02:09.000Z,52.30
2023-02-13T23:12:08.000Z,66.20
2023-02-13T23:22:08.000Z,57.50
2023-02-13T23:32:08.000Z,51.20
2023-02-13T23:42:08.000Z,55.80
2023-02-13T23:52:08.000Z,53.40
